• Join FlightAware (Why Join?)
  • Login
  • US Flag 
07:00PM EDT


 

Airport Tracker/Info


-or-


 

Live Flight TrackerFlight Track Log ✈ FLG4254 ✈ 20-Mar-2012 ✈ KATL - KICT

Flight Track Log - Related Links

Times and Time Zones

All times are in EDT time to prevent confusion due to time zone crossing. See the FLG4254 flight status page for this flight to view local times or setup timezone preferences in your user account.

Time Position Orientation Groundspeed Altitude Reporting Facility
EDT Latitude Longitude Course Direction KTS MPH feet Rate Location/Type
04:51PM 33.6500 -84.3667 59° Northeast 177 204 2,800  Level Atlanta TRACON
04:52PM 33.6833 -84.3000 12° North 263 303 4,600 2,160 Climbing Atlanta TRACON
04:53PM 33.7500 -84.2833 328° Northwest 289 333 7,200 2,700 Climbing Atlanta TRACON
04:54PM 33.8167 -84.3333 269° West 310 357 9,800 1,800 Climbing Atlanta TRACON
04:57PM 33.8119 -84.5814 270° West 334 384 13,000 1,560 Climbing Atlanta Center
04:58PM 33.8114 -84.6989 269° West 375 432 14,900 2,100 Climbing Atlanta Center
04:59PM 33.8083 -84.8564 265° West 411 473 17,300 1,800 Climbing Atlanta Center
05:00PM 33.7992 -84.9761 261° West 417 480 18,500 1,440 Climbing Atlanta Center
05:01PM 33.7811 -85.1161 266° West 422 486 20,200 1,500 Climbing Atlanta Center
05:02PM 33.7736 -85.2558 282° West 427 491 21,500 1,260 Climbing Atlanta Center
05:03PM 33.7992 -85.3986 281° West 433 498 22,800 1,320 Climbing Atlanta Center
05:04PM 33.8225 -85.5492 285° West 453 521 24,200 1,200 Climbing Atlanta Center
05:05PM 33.8542 -85.6947 292° West 453 521 25,200 1,200 Climbing Atlanta Center
05:06PM 33.9042 -85.8458 291° West 458 527 26,700 1,560 Climbing Atlanta Center
05:07PM 33.9481 -85.9869 289° West 451 519 28,400 1,560 Climbing Atlanta Center
05:08PM 33.9894 -86.1283 288° West 446 513 29,900 1,500 Climbing Atlanta Center
05:09PM 34.0267 -86.2644 290° West 446 513 31,500 1,020 Climbing Atlanta Center
05:10PM 34.0642 -86.3883 288° West 446 513 32,000 240 Climbing Atlanta Center
05:11PM 34.1031 -86.5300 289° West 446 513 32,000  Level Atlanta Center
05:12PM 34.1439 -86.6717 288° West 446 513 32,000  Level Atlanta Center
05:12PM 34.1828 -86.8169 288° West 468 539 32,000  Level Memphis Center
05:13PM 34.2222 -86.9611 288° West 480 552 32,000  Level Memphis Center
05:14PM 34.2639 -87.1128 290° West 475 547 32,000  Level Memphis Center
05:15PM 34.3072 -87.2594 288° West 475 547 32,000  Level Memphis Center
05:16PM 34.3508 -87.4239 289° West 475 547 32,000  Level Memphis Center
05:17PM 34.3939 -87.5733 289° West 475 547 32,000  Level Memphis Center
05:18PM 34.4347 -87.7206 286° West 470 541 32,000  Level Memphis Center
05:19PM 34.4711 -87.8706 289° West 470 541 32,000  Level Memphis Center
05:20PM 34.5136 -88.0181 286° West 470 541 32,000  Level Memphis Center
05:21PM 34.5497 -88.1683 288° West 465 535 32,000  Level Memphis Center
05:22PM 34.5900 -88.3211 288° West 470 541 32,000  Level Memphis Center
05:23PM 34.6300 -88.4692 288° West 470 541 32,000  Level Memphis Center
05:24PM 34.6675 -88.6072 287° West 452 520 32,000  Level Memphis Center
05:25PM 34.7050 -88.7581 288° West 452 520 32,000  Level Memphis Center
05:26PM 34.7400 -88.8861 287° West 458 527 32,000  Level Memphis Center
05:27PM 34.7769 -89.0347 287° West 458 527 32,000  Level Memphis Center
05:28PM 34.8139 -89.1833 288° West 451 519 32,000  Level Memphis Center
05:29PM 34.8528 -89.3297 287° West 457 526 32,000  Level Memphis Center
05:30PM 34.8894 -89.4736 289° West 452 520 32,000  Level Memphis Center
05:31PM 34.9300 -89.6175 292° West 452 520 32,000  Level Memphis Center
05:32PM 34.9808 -89.7692 306° West 470 541 32,000  Level Memphis Center
05:33PM 35.0544 -89.8953 291° West 465 535 32,000  Level Memphis Center
05:34PM 35.1008 -90.0422 290° West 460 529 32,000  Level Memphis Center
05:35PM 35.1450 -90.1894 291° West 465 535 32,000  Level Memphis Center
05:36PM 35.1908 -90.3367 290° West 465 535 32,000  Level Memphis Center
05:37PM 35.2347 -90.4867 290° West 465 535 32,000  Level Memphis Center
05:38PM 35.2783 -90.6317 289° West 465 535 32,000  Level Memphis Center
05:39PM 35.3236 -90.7922 289° West 465 535 32,000  Level Memphis Center
05:40PM 35.3669 -90.9428 290° West 465 535 32,000  Level Memphis Center
05:41PM 35.4119 -91.0908 289° West 465 535 32,000  Level Memphis Center
05:42PM 35.4547 -91.2442 301° West 465 535 32,000  Level Memphis Center
05:43PM 35.5206 -91.3800 319° Northwest 471 542 32,000  Level Memphis Center
05:44PM 35.6136 -91.4781 319° Northwest 465 535 32,000  Level Memphis Center
05:45PM 35.7147 -91.5869 321° Northwest 476 548 32,000  Level Memphis Center
05:46PM 35.8242 -91.6961 320° Northwest 487 560 32,000  Level Memphis Center
05:47PM 35.9314 -91.8081 318° Northwest 502 578 32,000  Level Memphis Center
05:48PM 36.0342 -91.9228 319° Northwest 502 578 32,000  Level Memphis Center
05:49PM 36.1369 -92.0325 322° Northwest 501 577 32,000  Level Memphis Center
05:50PM 36.2522 -92.1456 319° Northwest 506 582 32,000  Level Memphis Center
05:51PM 36.3589 -92.2589 319° Northwest 516 594 32,000  Level Memphis Center
05:52PM 36.4675 -92.3750 319° Northwest 516 594 32,000  Level Memphis Center
05:55PM 36.7519 -92.6811 319° Northwest 516 594 32,000  Level Kansas City Center
05:56PM 36.8578 -92.7981 320° Northwest 516 594 32,000  Level Kansas City Center
05:57PM 36.9700 -92.9150 319° Northwest 516 594 32,000  Level Kansas City Center
05:58PM 37.0589 -93.0122 319° Northwest 516 594 32,000  Level Kansas City Center
05:59PM 37.1794 -93.1428 318° Northwest 516 594 32,000  Level Kansas City Center
06:00PM 37.2872 -93.2661 301° West 521 600 32,000  Level Kansas City Center
06:01PM 37.3575 -93.4139 279° West 501 577 32,000  Level Kansas City Center
06:02PM 37.3778 -93.5808 277° West 483 556 32,000  Level Kansas City Center
06:03PM 37.3933 -93.7453 275° West 476 548 32,000  Level Kansas City Center
06:04PM 37.4047 -93.9072 277° West 476 548 32,000  Level Kansas City Center
06:05PM 37.4200 -94.0744 277° West 476 548 32,000  Level Kansas City Center
06:06PM 37.4372 -94.2522 276° West 471 542 32,000  Level Kansas City Center
06:07PM 37.4500 -94.4197 275° West 483 556 32,000  Level Kansas City Center
06:08PM 37.4625 -94.5872 277° West 483 556 32,000  Level Kansas City Center
06:09PM 37.4792 -94.7547 275° West 483 556 32,000  Level Kansas City Center
06:10PM 37.4911 -94.9222 275° West 483 556 32,000  Level Kansas City Center
06:11PM 37.5031 -95.0897 275° West 483 556 32,000  Level Kansas City Center
06:12PM 37.5144 -95.2600 275° West 483 556 32,000 -420 Level Kansas City Center
06:13PM 37.5258 -95.4278 275° West 483 556 31,200 -1,800 Descending Kansas City Center
06:14PM 37.5369 -95.5956 275° West 483 556 28,500 -2,700 Descending Kansas City Center
06:15PM 37.5478 -95.7633 275° West 483 556 25,900 -2,640 Descending Kansas City Center
06:16PM 37.5606 -95.9339 275° West 483 556 23,300 -2,640 Descending Kansas City Center
06:17PM 37.5711 -96.0939 274° West 477 549 20,700 -2,400 Descending Kansas City Center
06:18PM 37.5794 -96.2408 273° West 454 522 18,500 -2,280 Descending Kansas City Center
06:19PM 37.5856 -96.3825 273° West 433 498 16,200 -2,220 Descending Kansas City Center
06:20PM 37.5917 -96.5214 275° West 416 479 14,100 -2,160 Descending Kansas City Center
06:21PM 37.5983 -96.6108 273° West 393 452 12,600 -1,920 Descending Kansas City Center
06:22PM 37.6044 -96.7394 269° West 397 457 11,100 -900 Descending Kansas City Center
06:23PM 37.6019 -96.8678 246° West 369 425 10,900 -600 Descending Kansas City Center
06:24PM 37.5667 -96.9689 247° West 302 348 10,000 -1,380 Descending Kansas City Center
06:25PM 37.5331 -97.0700 246° West 290 334 8,200 -1,560 Descending Kansas City Center
06:26PM 37.5019 -97.1578 246° West 279 321 6,900 -1,080 Descending Kansas City Center
06:27PM 37.4686 -97.2508 254° West 269 310 6,000 -420 Descending Kansas City Center
06:28PM 37.4500 -97.3339 276° West 284 327 6,100 -360 Climbing Kansas City Center
06:29PM 37.4581 -97.4311 307° West 280 322 5,400 -1,080 Descending Kansas City Center
06:30PM 37.4961 -97.4953 18° North 247 284 4,000 -1,200 Descending Kansas City Center
06:31PM 37.5553 -97.4717 22° Northeast 218 251 3,000 -900 Descending Kansas City Center
06:32PM 37.5975 -97.4497 19° North 152 175 2,300 -720 Descending Kansas City Center
06:33PM 37.6311 -97.4353 23° Northeast 134 154 1,600 -480 Descending Kansas City Center
06:34PM 37.6544 -97.4231 222° Southwest 80 92 1,300 -180 Descending Kansas City Center
06:35PM 37.6522 -97.4256 222° Southwest 3 3 1,300  Level Kansas City Center